sensor_id;sensor_type;location;lat;lon;timestamp;P1;durP1;ratioP1;P2;durP2;ratioP2
17199;SDS011;8716;52.268;20.968;2022-08-01T00:01:13;2.80;;;2.60;;
17199;SDS011;8716;52.268;20.968;2022-08-01T00:03:43;6.47;;;2.17;;
17199;SDS011;8716;52.268;20.968;2022-08-01T00:06:11;2.90;;;2.70;;
17199;SDS011;8716;52.268;20.968;2022-08-01T00:08:41;2.93;;;2.73;;
17199;SDS011;8716;52.268;20.968;2022-08-01T00:11:09;3.20;;;3.00;;
17199;SDS011;8716;52.268;20.968;2022-08-01T00:13:37;3.57;;;3.37;;
17199;SDS011;8716;52.268;20.968;2022-08-01T00:16:05;2.93;;;2.73;;
17199;SDS011;8716;52.268;20.968;2022-08-01T00:18:33;2.73;;;2.50;;
17199;SDS011;8716;52.268;20.968;2022-08-01T00:21:03;2.70;;;2.50;;
17199;SDS011;8716;52.268;20.968;2022-08-01T00:23:31;2.83;;;2.20;;
17199;SDS011;8716;52.268;20.968;2022-08-01T00:26:01;5.30;;;2.77;;
17199;SDS011;8716;52.268;20.968;2022-08-01T00:28:29;3.27;;;3.07;;
17199;SDS011;8716;52.268;20.968;2022-08-01T00:30:57;2.37;;;2.17;;
17199;SDS011;8716;52.268;20.968;2022-08-01T00:33:26;2.63;;;2.33;;
17199;SDS011;8716;52.268;20.968;2022-08-01T00:35:54;2.80;;;2.60;;
17199;SDS011;8716;52.268;20.968;2022-08-01T00:38:22;3.90;;;2.20;;
17199;SDS011;8716;52.268;20.968;2022-08-01T00:40:51;4.33;;;3.03;;
17199;SDS011;8716;52.268;20.968;2022-08-01T00:43:21;3.83;;;2.93;;
17199;SDS011;8716;52.268;20.968;2022-08-01T00:45:49;2.57;;;1.90;;
17199;SDS011;8716;52.268;20.968;2022-08-01T00:48:17;2.73;;;2.53;;
17199;SDS011;8716;52.268;20.968;2022-08-01T00:50:45;3.10;;;2.90;;
17199;SDS011;8716;52.268;20.968;2022-08-01T00:53:13;4.30;;;4.03;;
17199;SDS011;8716;52.268;20.968;2022-08-01T00:55:44;1.87;;;1.80;;
17199;SDS011;8716;52.268;20.968;2022-08-01T00:58:14;2.97;;;2.77;;
17199;SDS011;8716;52.268;20.968;2022-08-01T01:00:44;2.60;;;2.07;;
17199;SDS011;8716;52.268;20.968;2022-08-01T01:03:20;2.70;;;2.50;;
17199;SDS011;8716;52.268;20.968;2022-08-01T01:06:13;2.70;;;2.50;;
17199;SDS011;8716;52.268;20.968;2022-08-01T01:08:55;4.70;;;2.40;;
17199;SDS011;8716;52.268;20.968;2022-08-01T01:11:37;2.30;;;2.10;;
17199;SDS011;8716;52.268;20.968;2022-08-01T01:14:13;2.67;;;2.30;;
17199;SDS011;8716;52.268;20.968;2022-08-01T01:16:50;2.40;;;2.20;;
17199;SDS011;8716;52.268;20.968;2022-08-01T01:19:20;2.40;;;2.20;;
17199;SDS011;8716;52.268;20.968;2022-08-01T01:21:57;2.50;;;2.30;;
17199;SDS011;8716;52.268;20.968;2022-08-01T01:24:41;2.73;;;2.53;;
17199;SDS011;8716;52.268;20.968;2022-08-01T01:27:17;2.77;;;2.50;;
17199;SDS011;8716;52.268;20.968;2022-08-01T01:29:54;3.03;;;2.83;;
17199;SDS011;8716;52.268;20.968;2022-08-01T01:32:28;3.23;;;2.77;;
17199;SDS011;8716;52.268;20.968;2022-08-01T01:35:02;2.63;;;2.43;;
17199;SDS011;8716;52.268;20.968;2022-08-01T01:37:33;4.43;;;2.13;;
17199;SDS011;8716;52.268;20.968;2022-08-01T01:40:03;2.23;;;2.03;;
17199;SDS011;8716;52.268;20.968;2022-08-01T01:42:33;2.70;;;2.50;;
17199;SDS011;8716;52.268;20.968;2022-08-01T01:45:04;2.23;;;2.03;;
17199;SDS011;8716;52.268;20.968;2022-08-01T01:47:34;3.70;;;2.77;;
17199;SDS011;8716;52.268;20.968;2022-08-01T01:50:04;2.83;;;2.43;;
17199;SDS011;8716;52.268;20.968;2022-08-01T01:52:34;5.90;;;3.07;;
17199;SDS011;8716;52.268;20.968;2022-08-01T01:55:05;5.87;;;2.97;;
17199;SDS011;8716;52.268;20.968;2022-08-01T01:57:35;2.73;;;2.53;;
17199;SDS011;8716;52.268;20.968;2022-08-01T02:00:08;2.67;;;2.47;;
17199;SDS011;8716;52.268;20.968;2022-08-01T02:02:39;2.33;;;2.13;;
17199;SDS011;8716;52.268;20.968;2022-08-01T02:05:10;3.73;;;2.53;;
17199;SDS011;8716;52.268;20.968;2022-08-01T02:07:40;3.67;;;2.37;;
17199;SDS011;8716;52.268;20.968;2022-08-01T02:10:09;4.37;;;2.60;;
17199;SDS011;8716;52.268;20.968;2022-08-01T02:12:40;2.97;;;2.77;;
17199;SDS011;8716;52.268;20.968;2022-08-01T02:15:13;2.83;;;2.63;;
17199;SDS011;8716;52.268;20.968;2022-08-01T02:17:46;4.17;;;3.30;;
17199;SDS011;8716;52.268;20.968;2022-08-01T02:20:17;2.90;;;2.43;;
17199;SDS011;8716;52.268;20.968;2022-08-01T02:22:46;2.40;;;2.20;;
17199;SDS011;8716;52.268;20.968;2022-08-01T02:25:19;2.97;;;2.77;;
17199;SDS011;8716;52.268;20.968;2022-08-01T02:27:51;3.30;;;2.07;;
17199;SDS011;8716;52.268;20.968;2022-08-01T02:30:29;3.50;;;2.87;;
17199;SDS011;8716;52.268;20.968;2022-08-01T02:33:02;3.83;;;3.63;;
17199;SDS011;8716;52.268;20.968;2022-08-01T02:35:41;2.43;;;2.23;;
17199;SDS011;8716;52.268;20.968;2022-08-01T02:38:32;5.13;;;3.60;;
17199;SDS011;8716;52.268;20.968;2022-08-01T02:41:04;2.93;;;2.70;;
17199;SDS011;8716;52.268;20.968;2022-08-01T02:43:36;3.00;;;2.80;;
17199;SDS011;8716;52.268;20.968;2022-08-01T02:46:09;2.70;;;2.50;;
17199;SDS011;8716;52.268;20.968;2022-08-01T02:48:43;2.93;;;2.73;;
17199;SDS011;8716;52.268;20.968;2022-08-01T02:51:14;3.17;;;3.03;;
17199;SDS011;8716;52.268;20.968;2022-08-01T02:53:43;3.83;;;3.63;;
17199;SDS011;8716;52.268;20.968;2022-08-01T02:56:13;3.20;;;3.00;;
17199;SDS011;8716;52.268;20.968;2022-08-01T02:58:43;3.27;;;2.67;;
17199;SDS011;8716;52.268;20.968;2022-08-01T03:01:14;3.17;;;2.97;;
17199;SDS011;8716;52.268;20.968;2022-08-01T03:03:47;5.10;;;3.60;;
17199;SDS011;8716;52.268;20.968;2022-08-01T03:06:16;5.23;;;2.67;;
17199;SDS011;8716;52.268;20.968;2022-08-01T03:08:45;3.17;;;2.97;;
17199;SDS011;8716;52.268;20.968;2022-08-01T03:11:15;3.30;;;3.03;;
17199;SDS011;8716;52.268;20.968;2022-08-01T03:13:44;2.13;;;2.00;;
17199;SDS011;8716;52.268;20.968;2022-08-01T03:16:16;2.60;;;2.40;;
17199;SDS011;8716;52.268;20.968;2022-08-01T03:18:45;3.50;;;2.70;;
17199;SDS011;8716;52.268;20.968;2022-08-01T03:21:16;2.40;;;2.20;;
17199;SDS011;8716;52.268;20.968;2022-08-01T03:23:47;2.20;;;2.00;;
17199;SDS011;8716;52.268;20.968;2022-08-01T03:26:20;2.33;;;2.13;;
17199;SDS011;8716;52.268;20.968;2022-08-01T03:28:49;2.60;;;2.40;;
17199;SDS011;8716;52.268;20.968;2022-08-01T03:31:22;3.30;;;3.10;;
17199;SDS011;8716;52.268;20.968;2022-08-01T03:33:52;2.60;;;2.40;;
17199;SDS011;8716;52.268;20.968;2022-08-01T03:36:23;2.53;;;2.33;;
17199;SDS011;8716;52.268;20.968;2022-08-01T03:38:55;4.47;;;4.20;;
17199;SDS011;8716;52.268;20.968;2022-08-01T03:41:26;2.63;;;2.50;;
17199;SDS011;8716;52.268;20.968;2022-08-01T03:44:00;2.53;;;2.33;;
17199;SDS011;8716;52.268;20.968;2022-08-01T03:46:35;2.40;;;2.20;;
17199;SDS011;8716;52.268;20.968;2022-08-01T03:49:10;3.27;;;3.07;;
17199;SDS011;8716;52.268;20.968;2022-08-01T03:51:42;2.27;;;2.10;;
17199;SDS011;8716;52.268;20.968;2022-08-01T03:54:14;3.37;;;3.17;;
17199;SDS011;8716;52.268;20.968;2022-08-01T03:56:44;4.13;;;3.90;;
17199;SDS011;8716;52.268;20.968;2022-08-01T03:59:16;3.40;;;3.20;;
17199;SDS011;8716;52.268;20.968;2022-08-01T04:01:46;2.70;;;2.50;;
17199;SDS011;8716;52.268;20.968;2022-08-01T04:04:15;3.10;;;2.90;;
17199;SDS011;8716;52.268;20.968;2022-08-01T04:06:44;2.97;;;2.77;;
17199;SDS011;8716;52.268;20.968;2022-08-01T04:09:12;3.00;;;2.80;;
17199;SDS011;8716;52.268;20.968;2022-08-01T04:11:40;3.10;;;2.90;;
17199;SDS011;8716;52.268;20.968;2022-08-01T04:14:09;2.53;;;2.33;;
17199;SDS011;8716;52.268;20.968;2022-08-01T04:16:37;2.97;;;2.80;;
17199;SDS011;8716;52.268;20.968;2022-08-01T04:19:07;2.90;;;2.70;;
17199;SDS011;8716;52.268;20.968;2022-08-01T04:21:36;4.30;;;3.20;;
17199;SDS011;8716;52.268;20.968;2022-08-01T04:24:08;4.20;;;3.23;;
17199;SDS011;8716;52.268;20.968;2022-08-01T04:26:39;3.03;;;2.83;;
17199;SDS011;8716;52.268;20.968;2022-08-01T04:29:08;2.47;;;2.03;;
17199;SDS011;8716;52.268;20.968;2022-08-01T04:31:38;3.50;;;3.30;;
17199;SDS011;8716;52.268;20.968;2022-08-01T04:34:10;3.50;;;2.40;;
17199;SDS011;8716;52.268;20.968;2022-08-01T04:36:41;2.60;;;2.40;;
17199;SDS011;8716;52.268;20.968;2022-08-01T04:39:10;3.93;;;2.80;;
17199;SDS011;8716;52.268;20.968;2022-08-01T04:41:41;2.73;;;2.53;;
17199;SDS011;8716;52.268;20.968;2022-08-01T04:44:10;2.30;;;2.10;;
17199;SDS011;8716;52.268;20.968;2022-08-01T04:46:39;2.50;;;2.30;;
17199;SDS011;8716;52.268;20.968;2022-08-01T04:49:08;2.67;;;2.37;;
17199;SDS011;8716;52.268;20.968;2022-08-01T04:51:49;2.70;;;2.50;;
17199;SDS011;8716;52.268;20.968;2022-08-01T04:54:18;2.63;;;2.00;;
17199;SDS011;8716;52.268;20.968;2022-08-01T04:56:47;2.87;;;2.67;;
17199;SDS011;8716;52.268;20.968;2022-08-01T04:59:16;2.77;;;2.57;;
17199;SDS011;8716;52.268;20.968;2022-08-01T05:02:02;3.63;;;3.43;;
17199;SDS011;8716;52.268;20.968;2022-08-01T05:04:32;4.33;;;3.07;;
17199;SDS011;8716;52.268;20.968;2022-08-01T05:07:00;3.47;;;3.27;;
17199;SDS011;8716;52.268;20.968;2022-08-01T05:09:28;3.70;;;3.50;;
17199;SDS011;8716;52.268;20.968;2022-08-01T05:11:57;2.70;;;2.50;;
17199;SDS011;8716;52.268;20.968;2022-08-01T05:14:26;3.03;;;2.83;;
17199;SDS011;8716;52.268;20.968;2022-08-01T05:16:54;5.03;;;3.73;;
17199;SDS011;8716;52.268;20.968;2022-08-01T05:19:25;3.37;;;3.17;;
17199;SDS011;8716;52.268;20.968;2022-08-01T05:21:54;4.57;;;3.50;;
17199;SDS011;8716;52.268;20.968;2022-08-01T05:24:25;5.50;;;3.83;;
17199;SDS011;8716;52.268;20.968;2022-08-01T05:26:56;2.73;;;2.53;;
17199;SDS011;8716;52.268;20.968;2022-08-01T05:29:25;2.73;;;2.53;;
17199;SDS011;8716;52.268;20.968;2022-08-01T05:31:53;4.77;;;4.47;;
17199;SDS011;8716;52.268;20.968;2022-08-01T05:34:21;3.10;;;2.73;;
17199;SDS011;8716;52.268;20.968;2022-08-01T05:36:49;2.33;;;2.13;;
17199;SDS011;8716;52.268;20.968;2022-08-01T05:39:24;2.60;;;2.40;;
17199;SDS011;8716;52.268;20.968;2022-08-01T05:41:52;3.17;;;2.97;;
17199;SDS011;8716;52.268;20.968;2022-08-01T05:44:20;2.90;;;2.70;;
17199;SDS011;8716;52.268;20.968;2022-08-01T05:46:48;3.00;;;2.80;;
17199;SDS011;8716;52.268;20.968;2022-08-01T05:49:16;2.77;;;2.57;;
17199;SDS011;8716;52.268;20.968;2022-08-01T05:51:47;4.17;;;3.30;;
17199;SDS011;8716;52.268;20.968;2022-08-01T05:54:15;2.70;;;2.50;;
17199;SDS011;8716;52.268;20.968;2022-08-01T05:56:45;3.77;;;2.70;;
17199;SDS011;8716;52.268;20.968;2022-08-01T05:59:13;3.80;;;3.50;;
17199;SDS011;8716;52.268;20.968;2022-08-01T06:01:41;3.13;;;2.77;;
17199;SDS011;8716;52.268;20.968;2022-08-01T06:04:10;3.67;;;3.47;;
17199;SDS011;8716;52.268;20.968;2022-08-01T06:06:38;3.63;;;3.43;;
17199;SDS011;8716;52.268;20.968;2022-08-01T06:09:06;3.30;;;2.70;;
17199;SDS011;8716;52.268;20.968;2022-08-01T06:11:37;3.60;;;3.40;;
17199;SDS011;8716;52.268;20.968;2022-08-01T06:14:06;4.27;;;4.00;;
17199;SDS011;8716;52.268;20.968;2022-08-01T06:16:35;4.33;;;4.03;;
17199;SDS011;8716;52.268;20.968;2022-08-01T06:19:03;4.90;;;3.33;;
17199;SDS011;8716;52.268;20.968;2022-08-01T06:21:31;3.63;;;3.40;;
17199;SDS011;8716;52.268;20.968;2022-08-01T06:23:59;3.70;;;3.20;;
17199;SDS011;8716;52.268;20.968;2022-08-01T06:26:27;3.70;;;3.50;;
17199;SDS011;8716;52.268;20.968;2022-08-01T06:28:55;7.40;;;3.60;;
17199;SDS011;8716;52.268;20.968;2022-08-01T06:31:24;5.33;;;4.47;;
17199;SDS011;8716;52.268;20.968;2022-08-01T06:33:58;6.80;;;6.40;;
17199;SDS011;8716;52.268;20.968;2022-08-01T06:36:27;6.00;;;5.70;;
17199;SDS011;8716;52.268;20.968;2022-08-01T06:38:55;5.20;;;4.90;;
17199;SDS011;8716;52.268;20.968;2022-08-01T06:41:23;5.40;;;5.10;;
17199;SDS011;8716;52.268;20.968;2022-08-01T06:43:51;4.37;;;4.07;;
17199;SDS011;8716;52.268;20.968;2022-08-01T06:46:19;8.33;;;4.57;;
17199;SDS011;8716;52.268;20.968;2022-08-01T06:48:48;7.13;;;5.33;;
17199;SDS011;8716;52.268;20.968;2022-08-01T06:51:19;9.27;;;4.37;;
17199;SDS011;8716;52.268;20.968;2022-08-01T06:53:49;6.70;;;5.20;;
17199;SDS011;8716;52.268;20.968;2022-08-01T06:56:20;5.47;;;5.17;;
17199;SDS011;8716;52.268;20.968;2022-08-01T06:58:48;11.37;;;5.77;;
17199;SDS011;8716;52.268;20.968;2022-08-01T07:01:16;5.50;;;5.10;;
17199;SDS011;8716;52.268;20.968;2022-08-01T07:03:48;6.73;;;5.20;;
17199;SDS011;8716;52.268;20.968;2022-08-01T07:06:20;4.70;;;4.40;;
17199;SDS011;8716;52.268;20.968;2022-08-01T07:08:49;4.33;;;4.03;;
17199;SDS011;8716;52.268;20.968;2022-08-01T07:11:17;6.70;;;4.90;;
17199;SDS011;8716;52.268;20.968;2022-08-01T07:13:48;4.30;;;4.00;;
17199;SDS011;8716;52.268;20.968;2022-08-01T07:16:16;5.40;;;5.10;;
17199;SDS011;8716;52.268;20.968;2022-08-01T07:18:54;5.60;;;4.30;;
17199;SDS011;8716;52.268;20.968;2022-08-01T07:21:22;6.07;;;5.77;;
17199;SDS011;8716;52.268;20.968;2022-08-01T07:24:06;7.10;;;6.70;;
17199;SDS011;8716;52.268;20.968;2022-08-01T07:26:39;4.80;;;4.50;;
17199;SDS011;8716;52.268;20.968;2022-08-01T07:29:20;5.00;;;4.70;;
17199;SDS011;8716;52.268;20.968;2022-08-01T07:31:49;7.30;;;3.63;;
17199;SDS011;8716;52.268;20.968;2022-08-01T07:34:19;3.60;;;3.40;;
17199;SDS011;8716;52.268;20.968;2022-08-01T07:36:47;3.87;;;3.67;;
17199;SDS011;8716;52.268;20.968;2022-08-01T07:39:18;5.10;;;3.37;;
17199;SDS011;8716;52.268;20.968;2022-08-01T07:41:47;6.90;;;6.20;;
17199;SDS011;8716;52.268;20.968;2022-08-01T07:44:33;5.77;;;5.47;;
17199;SDS011;8716;52.268;20.968;2022-08-01T07:47:01;11.83;;;6.83;;
17199;SDS011;8716;52.268;20.968;2022-08-01T07:49:31;6.37;;;6.00;;
17199;SDS011;8716;52.268;20.968;2022-08-01T07:52:05;2.57;;;2.37;;
17199;SDS011;8716;52.268;20.968;2022-08-01T07:54:34;3.00;;;2.80;;
17199;SDS011;8716;52.268;20.968;2022-08-01T07:57:02;2.87;;;2.67;;
17199;SDS011;8716;52.268;20.968;2022-08-01T07:59:31;3.23;;;3.03;;
17199;SDS011;8716;52.268;20.968;2022-08-01T08:01:59;3.30;;;3.10;;
17199;SDS011;8716;52.268;20.968;2022-08-01T08:04:27;3.80;;;3.60;;
17199;SDS011;8716;52.268;20.968;2022-08-01T08:06:57;4.00;;;3.80;;
17199;SDS011;8716;52.268;20.968;2022-08-01T08:09:25;3.90;;;3.70;;
17199;SDS011;8716;52.268;20.968;2022-08-01T08:11:53;3.90;;;2.90;;
17199;SDS011;8716;52.268;20.968;2022-08-01T08:14:21;3.33;;;3.10;;
17199;SDS011;8716;52.268;20.968;2022-08-01T08:16:58;4.63;;;4.33;;
17199;SDS011;8716;52.268;20.968;2022-08-01T08:19:27;4.60;;;4.30;;
17199;SDS011;8716;52.268;20.968;2022-08-01T08:22:05;4.60;;;4.30;;
17199;SDS011;8716;52.268;20.968;2022-08-01T08:24:34;3.20;;;3.00;;
17199;SDS011;8716;52.268;20.968;2022-08-01T08:27:12;4.63;;;4.33;;
17199;SDS011;8716;52.268;20.968;2022-08-01T08:29:40;4.13;;;3.90;;
17199;SDS011;8716;52.268;20.968;2022-08-01T08:32:10;5.20;;;3.60;;
17199;SDS011;8716;52.268;20.968;2022-08-01T08:34:38;3.80;;;3.60;;
17199;SDS011;8716;52.268;20.968;2022-08-01T08:37:08;3.83;;;3.63;;
17199;SDS011;8716;52.268;20.968;2022-08-01T08:39:36;3.90;;;3.70;;
17199;SDS011;8716;52.268;20.968;2022-08-01T08:42:08;3.77;;;3.57;;
17199;SDS011;8716;52.268;20.968;2022-08-01T08:44:37;4.13;;;3.90;;
17199;SDS011;8716;52.268;20.968;2022-08-01T08:47:11;3.10;;;2.90;;
17199;SDS011;8716;52.268;20.968;2022-08-01T08:49:46;3.30;;;3.10;;
17199;SDS011;8716;52.268;20.968;2022-08-01T08:52:17;2.97;;;2.77;;
17199;SDS011;8716;52.268;20.968;2022-08-01T08:54:47;3.87;;;3.67;;
17199;SDS011;8716;52.268;20.968;2022-08-01T08:57:18;3.73;;;3.00;;
17199;SDS011;8716;52.268;20.968;2022-08-01T08:59:49;2.77;;;2.57;;
17199;SDS011;8716;52.268;20.968;2022-08-01T09:02:20;2.60;;;2.40;;
17199;SDS011;8716;52.268;20.968;2022-08-01T09:04:50;2.97;;;2.77;;
17199;SDS011;8716;52.268;20.968;2022-08-01T09:07:19;3.50;;;3.30;;
17199;SDS011;8716;52.268;20.968;2022-08-01T09:09:49;3.70;;;3.50;;
17199;SDS011;8716;52.268;20.968;2022-08-01T09:12:17;4.60;;;4.30;;
17199;SDS011;8716;52.268;20.968;2022-08-01T09:14:47;4.10;;;3.90;;
17199;SDS011;8716;52.268;20.968;2022-08-01T09:17:19;2.77;;;2.57;;
17199;SDS011;8716;52.268;20.968;2022-08-01T09:19:48;4.03;;;3.83;;
17199;SDS011;8716;52.268;20.968;2022-08-01T09:22:23;4.47;;;4.17;;
17199;SDS011;8716;52.268;20.968;2022-08-01T09:24:58;4.20;;;3.60;;
17199;SDS011;8716;52.268;20.968;2022-08-01T09:27:28;3.30;;;3.10;;
17199;SDS011;8716;52.268;20.968;2022-08-01T09:30:06;3.27;;;3.07;;
17199;SDS011;8716;52.268;20.968;2022-08-01T09:32:37;2.80;;;2.60;;
17199;SDS011;8716;52.268;20.968;2022-08-01T09:35:24;3.50;;;3.30;;
17199;SDS011;8716;52.268;20.968;2022-08-01T09:38:14;3.03;;;2.83;;
17199;SDS011;8716;52.268;20.968;2022-08-01T09:40:45;4.63;;;4.33;;
17199;SDS011;8716;52.268;20.968;2022-08-01T09:43:16;2.53;;;2.33;;
17199;SDS011;8716;52.268;20.968;2022-08-01T09:45:44;6.10;;;4.00;;
17199;SDS011;8716;52.268;20.968;2022-08-01T09:48:16;4.50;;;3.50;;
17199;SDS011;8716;52.268;20.968;2022-08-01T09:50:46;5.57;;;2.30;;
17199;SDS011;8716;52.268;20.968;2022-08-01T09:53:16;4.93;;;4.63;;
17199;SDS011;8716;52.268;20.968;2022-08-01T09:56:01;3.13;;;2.93;;
17199;SDS011;8716;52.268;20.968;2022-08-01T10:01:26;2.83;;;2.63;;
17199;SDS011;8716;52.268;20.968;2022-08-01T10:04:09;2.90;;;2.70;;
17199;SDS011;8716;52.268;20.968;2022-08-01T10:06:41;4.47;;;4.17;;
17199;SDS011;8716;52.268;20.968;2022-08-01T10:09:14;4.47;;;3.73;;
17199;SDS011;8716;52.268;20.968;2022-08-01T10:12:05;3.93;;;3.73;;
17199;SDS011;8716;52.268;20.968;2022-08-01T10:14:34;3.03;;;2.83;;
17199;SDS011;8716;52.268;20.968;2022-08-01T10:17:07;3.80;;;3.60;;
17199;SDS011;8716;52.268;20.968;2022-08-01T10:19:46;4.63;;;4.33;;
17199;SDS011;8716;52.268;20.968;2022-08-01T10:22:16;3.07;;;2.87;;
17199;SDS011;8716;52.268;20.968;2022-08-01T10:24:47;3.73;;;3.53;;
17199;SDS011;8716;52.268;20.968;2022-08-01T10:27:17;2.90;;;2.70;;
17199;SDS011;8716;52.268;20.968;2022-08-01T10:30:02;2.97;;;2.20;;
17199;SDS011;8716;52.268;20.968;2022-08-01T10:32:46;3.67;;;3.47;;
17199;SDS011;8716;52.268;20.968;2022-08-01T10:35:16;3.60;;;3.40;;
17199;SDS011;8716;52.268;20.968;2022-08-01T10:38:05;3.23;;;3.03;;
17199;SDS011;8716;52.268;20.968;2022-08-01T10:40:40;3.30;;;3.10;;
17199;SDS011;8716;52.268;20.968;2022-08-01T10:43:10;3.80;;;3.60;;
17199;SDS011;8716;52.268;20.968;2022-08-01T10:45:38;6.70;;;4.07;;
17199;SDS011;8716;52.268;20.968;2022-08-01T10:48:09;6.37;;;3.93;;
17199;SDS011;8716;52.268;20.968;2022-08-01T10:50:47;3.90;;;3.13;;
17199;SDS011;8716;52.268;20.968;2022-08-01T10:53:17;3.33;;;3.13;;
17199;SDS011;8716;52.268;20.968;2022-08-01T10:56:01;4.13;;;3.80;;
17199;SDS011;8716;52.268;20.968;2022-08-01T10:58:31;3.67;;;3.47;;
17199;SDS011;8716;52.268;20.968;2022-08-01T11:01:13;3.73;;;3.53;;
17199;SDS011;8716;52.268;20.968;2022-08-01T11:04:07;3.67;;;3.50;;
17199;SDS011;8716;52.268;20.968;2022-08-01T11:06:45;5.20;;;4.90;;
17199;SDS011;8716;52.268;20.968;2022-08-01T11:09:23;3.77;;;3.57;;
17199;SDS011;8716;52.268;20.968;2022-08-01T11:12:04;4.17;;;3.90;;
17199;SDS011;8716;52.268;20.968;2022-08-01T11:17:56;12.03;;;3.93;;
17199;SDS011;8716;52.268;20.968;2022-08-01T11:20:33;3.73;;;3.53;;
17199;SDS011;8716;52.268;20.968;2022-08-01T11:23:17;4.43;;;3.70;;
17199;SDS011;8716;52.268;20.968;2022-08-01T11:26:10;3.70;;;3.50;;
17199;SDS011;8716;52.268;20.968;2022-08-01T11:28:44;3.77;;;3.53;;
17199;SDS011;8716;52.268;20.968;2022-08-01T11:31:34;3.70;;;3.50;;
17199;SDS011;8716;52.268;20.968;2022-08-01T11:34:03;3.70;;;3.50;;
17199;SDS011;8716;52.268;20.968;2022-08-01T11:36:32;4.57;;;4.27;;
17199;SDS011;8716;52.268;20.968;2022-08-01T11:39:20;3.80;;;3.60;;
17199;SDS011;8716;52.268;20.968;2022-08-01T11:41:49;3.30;;;3.10;;
17199;SDS011;8716;52.268;20.968;2022-08-01T11:44:21;3.50;;;3.30;;
17199;SDS011;8716;52.268;20.968;2022-08-01T11:46:58;2.83;;;2.63;;
17199;SDS011;8716;52.268;20.968;2022-08-01T11:49:43;3.27;;;3.07;;
17199;SDS011;8716;52.268;20.968;2022-08-01T11:52:15;4.00;;;3.20;;
17199;SDS011;8716;52.268;20.968;2022-08-01T11:54:47;5.27;;;4.10;;
17199;SDS011;8716;52.268;20.968;2022-08-01T11:57:19;3.03;;;2.83;;
17199;SDS011;8716;52.268;20.968;2022-08-01T11:59:50;3.90;;;3.70;;
17199;SDS011;8716;52.268;20.968;2022-08-01T12:02:37;3.83;;;3.63;;
17199;SDS011;8716;52.268;20.968;2022-08-01T12:05:06;4.43;;;4.13;;
17199;SDS011;8716;52.268;20.968;2022-08-01T12:07:42;4.40;;;4.10;;
17199;SDS011;8716;52.268;20.968;2022-08-01T12:10:13;4.30;;;3.90;;
17199;SDS011;8716;52.268;20.968;2022-08-01T12:12:43;3.20;;;3.00;;
17199;SDS011;8716;52.268;20.968;2022-08-01T12:15:14;3.70;;;3.50;;
17199;SDS011;8716;52.268;20.968;2022-08-01T12:17:43;4.50;;;3.30;;
17199;SDS011;8716;52.268;20.968;2022-08-01T12:20:25;3.63;;;3.43;;
17199;SDS011;8716;52.268;20.968;2022-08-01T12:22:56;3.73;;;3.33;;
17199;SDS011;8716;52.268;20.968;2022-08-01T12:25:25;4.63;;;3.57;;
17199;SDS011;8716;52.268;20.968;2022-08-01T12:27:53;4.40;;;3.93;;
17199;SDS011;8716;52.268;20.968;2022-08-01T12:30:24;3.87;;;3.67;;
17199;SDS011;8716;52.268;20.968;2022-08-01T12:32:53;5.80;;;4.93;;
17199;SDS011;8716;52.268;20.968;2022-08-01T12:35:25;4.70;;;3.53;;
17199;SDS011;8716;52.268;20.968;2022-08-01T12:37:58;3.33;;;3.13;;
17199;SDS011;8716;52.268;20.968;2022-08-01T12:40:30;4.50;;;2.43;;
17199;SDS011;8716;52.268;20.968;2022-08-01T12:43:00;2.93;;;2.73;;
17199;SDS011;8716;52.268;20.968;2022-08-01T12:45:33;3.57;;;3.37;;
17199;SDS011;8716;52.268;20.968;2022-08-01T12:48:06;2.90;;;2.70;;
17199;SDS011;8716;52.268;20.968;2022-08-01T12:50:35;4.40;;;4.10;;
17199;SDS011;8716;52.268;20.968;2022-08-01T12:53:05;3.53;;;3.33;;
17199;SDS011;8716;52.268;20.968;2022-08-01T12:55:45;3.27;;;3.07;;
17199;SDS011;8716;52.268;20.968;2022-08-01T12:58:30;2.70;;;2.50;;
17199;SDS011;8716;52.268;20.968;2022-08-01T13:01:04;3.00;;;2.80;;
17199;SDS011;8716;52.268;20.968;2022-08-01T13:03:36;3.90;;;3.70;;
17199;SDS011;8716;52.268;20.968;2022-08-01T13:06:09;4.10;;;3.90;;
17199;SDS011;8716;52.268;20.968;2022-08-01T13:08:39;4.40;;;2.97;;
17199;SDS011;8716;52.268;20.968;2022-08-01T13:11:08;2.70;;;2.40;;
17199;SDS011;8716;52.268;20.968;2022-08-01T13:13:40;3.07;;;2.90;;
17199;SDS011;8716;52.268;20.968;2022-08-01T13:16:11;3.63;;;3.43;;
17199;SDS011;8716;52.268;20.968;2022-08-01T13:18:59;3.37;;;3.17;;
17199;SDS011;8716;52.268;20.968;2022-08-01T13:21:28;4.50;;;4.20;;
17199;SDS011;8716;52.268;20.968;2022-08-01T13:24:22;5.70;;;5.40;;
17199;SDS011;8716;52.268;20.968;2022-08-01T13:26:52;3.63;;;3.47;;
17199;SDS011;8716;52.268;20.968;2022-08-01T13:29:29;3.30;;;3.10;;
17199;SDS011;8716;52.268;20.968;2022-08-01T13:32:00;3.53;;;3.33;;
17199;SDS011;8716;52.268;20.968;2022-08-01T13:35:02;3.63;;;3.30;;
17199;SDS011;8716;52.268;20.968;2022-08-01T13:37:31;3.83;;;3.63;;
17199;SDS011;8716;52.268;20.968;2022-08-01T13:40:00;5.43;;;4.37;;
17199;SDS011;8716;52.268;20.968;2022-08-01T13:42:30;4.27;;;4.00;;
17199;SDS011;8716;52.268;20.968;2022-08-01T13:44:58;3.90;;;3.70;;
17199;SDS011;8716;52.268;20.968;2022-08-01T13:47:29;3.97;;;3.77;;
17199;SDS011;8716;52.268;20.968;2022-08-01T13:49:58;4.30;;;4.03;;
17199;SDS011;8716;52.268;20.968;2022-08-01T13:52:29;4.43;;;4.13;;
17199;SDS011;8716;52.268;20.968;2022-08-01T13:54:58;3.77;;;3.57;;
17199;SDS011;8716;52.268;20.968;2022-08-01T13:57:26;3.83;;;3.63;;
17199;SDS011;8716;52.268;20.968;2022-08-01T14:00:03;5.10;;;4.80;;
17199;SDS011;8716;52.268;20.968;2022-08-01T14:02:38;3.63;;;3.43;;
17199;SDS011;8716;52.268;20.968;2022-08-01T14:05:06;4.53;;;4.23;;
17199;SDS011;8716;52.268;20.968;2022-08-01T14:07:37;3.60;;;3.40;;
17199;SDS011;8716;52.268;20.968;2022-08-01T14:10:07;5.63;;;4.47;;
17199;SDS011;8716;52.268;20.968;2022-08-01T14:12:45;4.33;;;4.03;;
17199;SDS011;8716;52.268;20.968;2022-08-01T14:15:14;4.67;;;4.37;;
17199;SDS011;8716;52.268;20.968;2022-08-01T14:18:04;3.97;;;3.77;;
17199;SDS011;8716;52.268;20.968;2022-08-01T14:20:36;5.00;;;4.70;;
17199;SDS011;8716;52.268;20.968;2022-08-01T14:23:05;3.33;;;3.13;;
17199;SDS011;8716;52.268;20.968;2022-08-01T14:25:34;4.63;;;4.33;;
17199;SDS011;8716;52.268;20.968;2022-08-01T14:28:23;2.67;;;2.47;;
17199;SDS011;8716;52.268;20.968;2022-08-01T14:30:54;3.77;;;3.57;;
17199;SDS011;8716;52.268;20.968;2022-08-01T14:33:24;5.27;;;4.70;;
17199;SDS011;8716;52.268;20.968;2022-08-01T14:35:55;5.60;;;3.60;;
17199;SDS011;8716;52.268;20.968;2022-08-01T14:38:43;3.73;;;3.50;;
17199;SDS011;8716;52.268;20.968;2022-08-01T14:41:12;8.60;;;6.33;;
17199;SDS011;8716;52.268;20.968;2022-08-01T14:43:40;3.50;;;3.30;;
17199;SDS011;8716;52.268;20.968;2022-08-01T14:46:09;4.00;;;3.80;;
17199;SDS011;8716;52.268;20.968;2022-08-01T14:48:40;4.33;;;4.00;;
17199;SDS011;8716;52.268;20.968;2022-08-01T14:51:08;3.23;;;2.90;;
17199;SDS011;8716;52.268;20.968;2022-08-01T14:53:36;2.70;;;2.50;;
17199;SDS011;8716;52.268;20.968;2022-08-01T14:56:11;5.10;;;4.80;;
17199;SDS011;8716;52.268;20.968;2022-08-01T14:58:39;4.57;;;4.27;;
17199;SDS011;8716;52.268;20.968;2022-08-01T15:01:07;4.77;;;4.47;;
17199;SDS011;8716;52.268;20.968;2022-08-01T15:03:38;5.23;;;4.50;;
17199;SDS011;8716;52.268;20.968;2022-08-01T15:06:07;5.07;;;4.77;;
17199;SDS011;8716;52.268;20.968;2022-08-01T15:08:37;5.73;;;5.30;;
17199;SDS011;8716;52.268;20.968;2022-08-01T15:11:05;4.73;;;4.43;;
17199;SDS011;8716;52.268;20.968;2022-08-01T15:13:37;4.80;;;4.50;;
17199;SDS011;8716;52.268;20.968;2022-08-01T15:16:08;5.20;;;4.90;;
17199;SDS011;8716;52.268;20.968;2022-08-01T15:18:37;3.97;;;3.77;;
17199;SDS011;8716;52.268;20.968;2022-08-01T15:21:10;4.80;;;4.50;;
17199;SDS011;8716;52.268;20.968;2022-08-01T15:23:58;5.00;;;4.70;;